Time;durP1;ratioP1;P1;durP2;ratioP2;P2;SDS_P1;SDS_P2;PMS_P1;PMS_P2;Temp;Humidity;BMP_temperature;BMP_pressure;BME280_temperature;BME280_humidity;BME280_pressure;Samples;Min_cycle;Max_cycle;Signal;HPM_P1;HPM_P2
2022/07/13 00:01:55;;;;;;;4.03;3.63;;;;;;;19.42;100.00;102054.63;4943911;28;20499;-81
2022/07/13 00:04:30;;;;;;;3.53;3.22;;;;;;;19.41;100.00;102047.47;4960263;28;20050;-81
2022/07/13 00:07:00;;;;;;;4.40;4.00;;;;;;;19.43;100.00;102061.72;4995027;28;20156;-81
2022/07/13 00:09:30;;;;;;;5.53;4.13;;;;;;;19.43;100.00;102067.97;5007743;28;20057;-80
2022/07/13 00:11:58;;;;;;;3.72;3.42;;;;;;;19.43;100.00;102051.91;4964188;28;20054;-80
2022/07/13 00:14:27;;;;;;;3.67;3.38;;;;;;;19.44;100.00;102059.03;4975175;28;20053;-80
2022/07/13 00:16:56;;;;;;;7.03;4.07;;;;;;;19.47;100.00;102052.75;4984925;28;20064;-80
2022/07/13 00:19:24;;;;;;;5.43;4.57;;;;;;;19.47;100.00;102044.75;4939791;28;20046;-81
2022/07/13 00:21:55;;;;;;;4.28;3.88;;;;;;;19.47;100.00;102042.94;4968282;28;20043;-80
2022/07/13 00:24:24;;;;;;;4.60;4.20;;;;;;;19.48;100.00;102038.47;5004580;28;20057;-80
2022/07/13 00:26:52;;;;;;;4.15;3.85;;;;;;;19.48;100.00;102042.03;4984338;28;20515;-79
2022/07/13 00:29:20;;;;;;;4.38;3.97;;;;;;;19.48;100.00;102044.69;4971802;28;20528;-79
2022/07/13 00:31:51;;;;;;;4.68;4.28;;;;;;;19.50;100.00;102049.16;4984591;28;20061;-79
2022/07/13 00:34:20;;;;;;;4.35;4.05;;;;;;;19.48;100.00;102039.34;4940022;28;20042;-80
2022/07/13 00:36:48;;;;;;;4.25;3.85;;;;;;;19.50;100.00;102038.47;4982822;28;20067;-80
2022/07/13 00:39:17;;;;;;;4.60;4.25;;;;;;;19.48;100.00;102028.66;4960021;28;20069;-79
2022/07/13 00:41:47;;;;;;;4.45;4.05;;;;;;;19.50;100.00;102030.44;4973116;28;20376;-80
2022/07/13 00:44:16;;;;;;;6.18;4.13;;;;;;;19.48;100.00;102035.81;4987070;28;20061;-79
2022/07/13 00:46:55;;;;;;;3.85;3.58;;;;;;;19.48;100.00;102031.31;4989129;28;20053;-80
2022/07/13 00:49:24;;;;;;;5.97;3.67;;;;;;;19.47;100.00;102029.56;4985174;28;20053;-80
2022/07/13 00:51:56;;;;;;;5.80;3.50;;;;;;;19.47;100.00;102018.88;4924703;28;20038;-81
2022/07/13 00:54:31;;;;;;;6.00;3.47;;;;;;;19.47;100.00;102015.34;4988191;28;20058;-80
2022/07/13 00:57:01;;;;;;;3.72;3.00;;;;;;;19.47;100.00;102008.19;4987238;28;20259;-80
2022/07/13 00:59:30;;;;;;;3.03;2.78;;;;;;;19.46;100.00;102013.56;4950124;28;20042;-80
2022/07/13 01:02:00;;;;;;;4.53;3.10;;;;;;;19.46;100.00;102008.22;4992068;28;20534;-82
2022/07/13 01:04:32;;;;;;;3.60;3.40;;;;;;;19.45;100.00;102004.66;4977877;28;20046;-83
2022/07/13 01:07:01;;;;;;;3.60;3.30;;;;;;;19.45;100.00;101996.66;4959282;28;20061;-82
2022/07/13 01:09:31;;;;;;;3.60;3.00;;;;;;;19.45;100.00;101987.72;4976710;28;20042;-83
2022/07/13 01:12:03;;;;;;;3.35;3.15;;;;;;;19.45;100.00;101985.97;4987426;28;20282;-82
2022/07/13 01:14:34;;;;;;;3.08;2.83;;;;;;;19.45;100.00;101983.28;4986915;28;20038;-82
2022/07/13 01:17:02;;;;;;;3.33;3.00;;;;;;;19.45;100.00;101985.97;4990100;28;20050;-82
2022/07/13 01:19:34;;;;;;;5.10;3.08;;;;;;;19.46;100.00;101993.06;4983312;28;20053;-82
2022/07/13 01:22:03;;;;;;;3.22;2.92;;;;;;;19.46;100.00;101985.03;4958625;28;20033;-82
2022/07/13 01:24:32;;;;;;;5.72;2.85;;;;;;;19.46;100.00;101981.47;4987301;28;20046;-82
2022/07/13 01:27:02;;;;;;;2.90;2.70;;;;;;;19.46;100.00;101977.00;4971919;28;20045;-83
2022/07/13 01:29:31;;;;;;;3.08;2.88;;;;;;;19.47;100.00;101975.25;4994925;28;20038;-81
2022/07/13 01:32:00;;;;;;;3.43;3.13;;;;;;;19.46;100.00;101969.00;4958322;28;20046;-82
2022/07/13 01:34:30;;;;;;;5.93;2.80;;;;;;;19.46;100.00;101966.31;4960887;28;20065;-82
2022/07/13 01:36:59;;;;;;;5.28;3.30;;;;;;;19.44;100.00;101952.09;4967461;28;20048;-84
2022/07/13 01:39:30;;;;;;;4.00;3.03;;;;;;;19.45;100.00;101950.28;4995187;28;20056;-82
2022/07/13 01:42:02;;;;;;;3.30;3.00;;;;;;;19.45;100.00;101948.53;4970477;28;20531;-82
2022/07/13 01:44:30;;;;;;;3.40;3.10;;;;;;;19.45;100.00;101953.88;4962291;28;20049;-83
2022/07/13 01:47:06;;;;;;;4.22;3.15;;;;;;;19.46;100.00;101941.38;4998999;28;20049;-83
2022/07/13 01:49:38;;;;;;;2.85;2.65;;;;;;;19.44;100.00;101938.72;4996572;28;20050;-81
2022/07/13 01:52:07;;;;;;;3.38;3.05;;;;;;;19.44;100.00;101941.41;4932935;28;20041;-81
2022/07/13 01:54:37;;;;;;;4.80;3.75;;;;;;;19.42;100.00;101937.88;4992009;28;20053;-82
2022/07/13 01:57:05;;;;;;;4.03;3.05;;;;;;;19.42;100.00;101937.88;4991694;28;20252;-83
2022/07/13 01:59:33;;;;;;;4.80;3.58;;;;;;;19.43;100.00;101942.34;4995356;28;20042;-82
2022/07/13 02:02:02;;;;;;;7.22;3.58;;;;;;;19.42;100.00;101939.69;5005399;28;20045;-81
2022/07/13 02:04:33;;;;;;;3.92;3.63;;;;;;;19.43;100.00;101931.63;4980173;28;20045;-82
2022/07/13 02:07:02;;;;;;;3.97;3.60;;;;;;;19.43;100.00;101936.06;4981946;28;20436;-81
2022/07/13 02:09:30;;;;;;;4.63;3.67;;;;;;;19.42;100.00;101929.84;4986821;28;20060;-82
2022/07/13 02:11:59;;;;;;;4.72;3.65;;;;;;;19.42;100.00;101929.84;4976243;28;20038;-82
2022/07/13 02:14:27;;;;;;;3.47;3.28;;;;;;;19.43;100.00;101920.03;4983136;28;20061;-82
2022/07/13 02:16:56;;;;;;;4.05;3.75;;;;;;;19.43;100.00;101912.03;4983099;28;20053;-83
2022/07/13 02:19:25;;;;;;;4.88;4.10;;;;;;;19.42;100.00;101913.81;5011867;28;20053;-82
2022/07/13 02:21:57;;;;;;;6.53;4.00;;;;;;;19.43;100.00;101906.69;4996141;28;21024;-82
2022/07/13 02:24:25;;;;;;;5.38;3.60;;;;;;;19.43;100.00;101893.31;4955624;28;20046;-82
2022/07/13 02:26:54;;;;;;;3.80;3.58;;;;;;;19.42;100.00;101879.06;4979106;28;20042;-82
2022/07/13 02:29:23;;;;;;;4.88;4.03;;;;;;;19.41;100.00;101880.00;4980393;28;20057;-83
2022/07/13 02:31:53;;;;;;;4.55;4.15;;;;;;;19.40;100.00;101888.91;5009500;28;20082;-82
2022/07/13 02:34:27;;;;;;;5.30;4.80;;;;;;;19.40;100.00;101877.34;4967984;28;20050;-82
2022/07/13 02:36:56;;;;;;;13.38;4.20;;;;;;;19.39;100.00;101883.59;4985407;28;20721;-81
2022/07/13 02:39:25;;;;;;;6.22;4.80;;;;;;;19.38;100.00;101896.06;4988379;28;20050;-81
2022/07/13 02:42:05;;;;;;;5.55;5.05;;;;;;;19.39;100.00;101896.94;5009746;28;20467;-81
2022/07/13 02:44:33;;;;;;;5.22;4.82;;;;;;;19.38;100.00;101896.06;5005529;28;20045;-83
2022/07/13 02:47:01;;;;;;;5.70;5.13;;;;;;;19.38;100.00;101898.75;5008050;28;20251;-81
2022/07/13 02:49:33;;;;;;;4.97;4.43;;;;;;;19.39;100.00;101891.59;4983695;28;20057;-81
2022/07/13 02:52:04;;;;;;;5.75;5.25;;;;;;;19.38;100.00;101885.38;4968907;28;20034;-82
2022/07/13 02:54:34;;;;;;;5.00;4.60;;;;;;;19.38;100.00;101884.50;4959037;28;20388;-82
2022/07/13 02:57:04;;;;;;;7.72;4.78;;;;;;;19.37;100.00;101877.38;4984832;28;20555;-81
2022/07/13 02:59:37;;;;;;;7.30;5.60;;;;;;;19.38;100.00;101876.50;4996882;28;20034;-82
2022/07/13 03:02:06;;;;;;;6.78;6.07;;;;;;;19.36;100.00;101879.19;4979807;28;20080;-82
2022/07/13 03:04:35;;;;;;;6.03;5.40;;;;;;;19.36;100.00;101881.88;4987552;28;20049;-83
2022/07/13 03:07:04;;;;;;;5.75;5.22;;;;;;;19.36;100.00;101881.88;4994073;28;20074;-82
2022/07/13 03:09:34;;;;;;;8.02;5.82;;;;;;;19.34;100.00;101875.66;4967866;28;20056;-82
2022/07/13 03:12:03;;;;;;;6.55;5.40;;;;;;;19.33;100.00;101873.88;4987292;28;20069;-82
2022/07/13 03:14:32;;;;;;;6.30;5.70;;;;;;;19.32;100.00;101885.50;4997307;28;20034;-82
2022/07/13 03:17:03;;;;;;;7.38;6.38;;;;;;;19.31;100.00;101880.19;4963387;28;20042;-82
2022/07/13 03:19:33;;;;;;;7.40;6.70;;;;;;;19.29;100.00;101877.53;4975075;28;20034;-83
2022/07/13 03:22:04;;;;;;;10.60;6.03;;;;;;;19.28;100.00;101876.66;4977586;28;20937;-82
2022/07/13 03:24:36;;;;;;;7.88;6.10;;;;;;;19.29;100.00;101878.41;4990246;28;20046;-82
2022/07/13 03:27:06;;;;;;;7.53;6.43;;;;;;;19.29;100.00;101872.19;4973784;28;20060;-81
2022/07/13 03:29:36;;;;;;;7.30;6.00;;;;;;;19.29;100.00;101872.19;4965025;28;20046;-82
2022/07/13 03:32:05;;;;;;;;;;;;;;;19.29;100.00;101874.84;4979489;28;20275;-83
2022/07/13 03:34:38;;;;;;;7.22;6.45;;;;;;;19.29;100.00;101861.50;4980020;28;19926;-82
2022/07/13 03:37:08;;;;;;;7.05;5.43;;;;;;;19.29;100.00;101869.50;4991773;28;20042;-82
2022/07/13 03:39:38;;;;;;;8.35;6.25;;;;;;;19.31;100.00;101866.81;4998198;28;20483;-83
2022/07/13 03:42:08;;;;;;;;;;;;;;;19.29;100.00;101869.50;4953502;28;20038;-82
2022/07/13 03:44:37;;;;;;;6.57;5.97;;;;;;;19.29;100.00;101873.06;4996326;28;19921;-81
2022/07/13 03:47:05;;;;;;;9.02;6.28;;;;;;;19.30;100.00;101865.94;4996560;28;20042;-82
2022/07/13 03:49:35;;;;;;;9.35;6.30;;;;;;;19.29;100.00;101867.72;4973697;28;20057;-82
2022/07/13 03:52:05;;;;;;;;;;;;;;;19.29;100.00;101866.84;4983750;28;20080;-82
2022/07/13 03:54:36;;;;;;;;;;;;;;;19.27;100.00;101861.50;4991409;28;19921;-81
2022/07/13 03:57:05;;;;;;;7.20;6.22;;;;;;;19.29;100.00;101858.81;4953467;28;20229;-82
2022/07/13 03:59:34;;;;;;;6.05;5.45;;;;;;;19.28;100.00;101859.72;4982910;28;20030;-83
2022/07/13 04:02:03;;;;;;;6.90;5.57;;;;;;;19.28;100.00;101857.03;4959855;28;20602;-82
2022/07/13 04:04:32;;;;;;;5.90;5.35;;;;;;;19.29;100.00;101851.66;4975256;28;20050;-83
2022/07/13 04:07:02;;;;;;;10.82;8.13;;;;;;;19.27;100.00;101850.81;4993632;28;20049;-82
2022/07/13 04:09:32;;;;;;;8.02;5.97;;;;;;;19.28;100.00;101851.69;4996895;28;20061;-82
2022/07/13 04:12:00;;;;;;;7.43;6.18;;;;;;;19.28;100.00;101851.69;4937720;28;20254;-81
2022/07/13 04:14:30;;;;;;;7.50;6.03;;;;;;;19.28;100.00;101844.59;5002970;28;20038;-83
2022/07/13 04:16:59;;;;;;;6.10;5.50;;;;;;;19.28;100.00;101843.69;4977748;28;20065;-83
2022/07/13 04:19:28;;;;;;;6.23;5.80;;;;;;;19.27;100.00;101837.47;4980544;28;20034;-82
2022/07/13 04:21:57;;;;;;;6.22;5.57;;;;;;;19.28;100.00;101844.59;4989225;28;20053;-81
2022/07/13 04:24:26;;;;;;;6.50;5.90;;;;;;;19.29;100.00;101838.31;4985321;28;20053;-83
2022/07/13 04:26:56;;;;;;;6.05;5.45;;;;;;;19.31;100.00;101835.63;4963502;28;20045;-82
2022/07/13 04:29:24;;;;;;;7.40;5.40;;;;;;;19.32;100.00;101834.72;4949083;28;20049;-82
2022/07/13 04:31:53;;;;;;;6.20;5.60;;;;;;;19.33;100.00;101831.13;4964101;28;20060;-82
2022/07/13 04:34:23;;;;;;;7.30;5.80;;;;;;;19.35;100.00;101828.44;4945550;28;20080;-83
2022/07/13 04:36:52;;;;;;;6.15;5.55;;;;;;;19.34;100.00;101835.56;4992234;28;20046;-81
2022/07/13 04:39:21;;;;;;;9.35;5.65;;;;;;;19.36;100.00;101835.56;4985657;28;20057;-83
2022/07/13 04:41:50;;;;;;;9.10;6.10;;;;;;;19.37;100.00;101834.63;4995203;28;20053;-82
2022/07/13 04:44:19;;;;;;;8.70;6.22;;;;;;;19.36;100.00;101838.22;4968904;28;20052;-82
2022/07/13 04:46:48;;;;;;;7.05;6.35;;;;;;;19.35;100.00;101845.34;4972511;28;20041;-82
2022/07/13 04:49:19;;;;;;;6.72;5.93;;;;;;;19.34;100.00;101838.25;4991763;28;20039;-82
2022/07/13 04:51:49;;;;;;;6.88;5.72;;;;;;;19.36;100.00;101838.22;4979374;28;20042;-82
2022/07/13 04:54:19;;;;;;;6.35;5.80;;;;;;;19.36;100.00;101841.78;4981353;28;20044;-81
2022/07/13 04:56:48;;;;;;;7.78;6.47;;;;;;;19.36;100.00;101839.09;4956887;28;20057;-82
2022/07/13 04:59:17;;;;;;;8.25;5.13;;;;;;;19.36;100.00;101841.78;4961960;28;20641;-82
2022/07/13 05:01:45;;;;;;;6.03;5.35;;;;;;;19.37;100.00;101835.50;4969976;28;20092;-83
2022/07/13 05:04:15;;;;;;;6.63;5.95;;;;;;;19.40;100.00;101834.59;4941704;28;20504;-81
2022/07/13 05:06:43;;;;;;;6.13;5.53;;;;;;;19.43;100.00;101842.53;4942701;28;20050;-82
2022/07/13 05:09:15;;;;;;;5.82;5.15;;;;;;;19.46;100.00;101843.34;4965802;28;20971;-81
2022/07/13 05:11:44;;;;;;;6.22;5.72;;;;;;;19.47;100.00;101839.78;4934698;28;20058;-82
2022/07/13 05:14:13;;;;;;;5.68;5.13;;;;;;;19.48;100.00;101838.88;4929675;28;21544;-81
2022/07/13 05:16:41;;;;;;;7.50;5.45;;;;;;;19.52;100.00;101844.16;4945148;28;20043;-82
2022/07/13 05:19:11;;;;;;;12.27;5.45;;;;;;;19.53;100.00;101837.88;4929507;28;20050;-81
2022/07/13 05:21:42;;;;;;;6.68;4.95;;;;;;;19.54;100.00;101835.19;4926467;28;20158;-81
2022/07/13 05:24:13;;;;;;;5.95;5.38;;;;;;;19.55;100.00;101836.97;4924480;28;20054;-82
2022/07/13 05:26:41;;;;;;;8.52;5.22;;;;;;;19.57;100.00;101839.63;4938870;28;20043;-82
2022/07/13 05:29:10;;;;;;;6.63;5.03;;;;;;;19.56;100.00;101841.41;4896718;28;20288;-82
2022/07/13 05:31:39;;;;;;;6.45;5.32;;;;;;;19.57;100.00;101845.84;4932518;29;20047;-81
2022/07/13 05:34:08;;;;;;;5.85;5.28;;;;;;;19.58;100.00;101841.38;4971094;28;20050;-82
2022/07/13 05:36:41;;;;;;;7.63;5.82;;;;;;;19.58;100.00;101838.69;4975628;28;20448;-82
2022/07/13 05:39:09;;;;;;;6.93;5.53;;;;;;;19.59;100.00;101844.03;4981749;28;20085;-82
2022/07/13 05:41:41;;;;;;;6.55;5.93;;;;;;;19.62;100.00;101843.06;4968915;28;20249;-82
2022/07/13 05:44:09;;;;;;;8.35;5.38;;;;;;;19.63;100.00;101844.84;4984163;28;20057;-81
2022/07/13 05:46:38;;;;;;;8.13;5.47;;;;;;;19.64;100.00;101846.59;4961196;28;20221;-81
2022/07/13 05:49:08;;;;;;;6.20;5.60;;;;;;;19.65;100.00;101851.06;4960919;28;20050;-81
2022/07/13 05:51:36;;;;;;;5.70;5.10;;;;;;;19.66;100.00;101844.81;4973748;28;20049;-80
2022/07/13 05:54:08;;;;;;;6.82;5.78;;;;;;;19.66;100.00;101845.69;4950180;28;20061;-82
2022/07/13 05:56:56;;;;;;;7.22;5.60;;;;;;;19.67;100.00;101843.88;4977461;28;20042;-81
2022/07/13 05:59:25;;;;;;;8.90;5.60;;;;;;;19.69;100.00;101844.72;4963313;28;20062;-81
2022/07/13 06:01:55;;;;;;;9.85;5.50;;;;;;;19.68;100.00;101837.63;4954152;28;20062;-82
2022/07/13 06:04:23;;;;;;;6.18;5.57;;;;;;;19.68;100.00;101848.34;4975214;28;20377;-81
2022/07/13 06:06:52;;;;;;;7.57;5.65;;;;;;;19.67;100.00;101842.06;4995893;28;20400;-82
2022/07/13 06:09:20;;;;;;;12.80;6.78;;;;;;;19.68;100.00;101859.03;4994744;28;20065;-82
2022/07/13 06:11:49;;;;;;;7.35;5.90;;;;;;;19.67;100.00;101858.13;5008934;28;20038;-84
2022/07/13 06:14:18;;;;;;;7.65;6.55;;;;;;;19.67;100.00;101849.22;4964243;28;20054;-81
2022/07/13 06:16:50;;;;;;;13.43;6.32;;;;;;;19.69;100.00;101852.75;4972017;28;20503;-81
2022/07/13 06:19:18;;;;;;;7.63;6.65;;;;;;;19.69;100.00;101850.06;5001343;28;20069;-82
2022/07/13 06:21:47;;;;;;;7.95;7.05;;;;;;;19.71;100.00;101848.25;4999811;28;20045;-82
2022/07/13 06:24:16;;;;;;;8.80;7.90;;;;;;;19.73;100.00;101849.13;4999878;28;20049;-81
2022/07/13 06:26:45;;;;;;;14.27;7.93;;;;;;;19.76;100.00;101845.53;4961555;28;20403;-81
2022/07/13 06:29:15;;;;;;;9.65;7.93;;;;;;;19.80;100.00;101844.56;4963068;28;20038;-81
2022/07/13 06:31:44;;;;;;;8.82;8.00;;;;;;;19.84;100.00;101840.91;4963082;28;20046;-82
2022/07/13 06:34:12;;;;;;;10.38;8.60;;;;;;;19.88;100.00;101844.41;5007271;28;20050;-82
2022/07/13 06:36:41;;;;;;;8.60;7.80;;;;;;;19.95;100.00;101838.03;4966632;28;20291;-81
2022/07/13 06:39:12;;;;;;;10.77;9.60;;;;;;;19.99;100.00;101843.28;4989223;28;20068;-82
2022/07/13 06:41:45;;;;;;;9.48;8.57;;;;;;;20.06;100.00;101844.91;4985704;28;20050;-83
2022/07/13 06:44:13;;;;;;;11.50;9.00;;;;;;;20.14;100.00;101841.22;4993971;28;20046;-82
2022/07/13 06:46:42;;;;;;;9.68;8.73;;;;;;;20.20;100.00;101825.03;4984266;28;20045;-82
2022/07/13 06:49:10;;;;;;;8.68;7.55;;;;;;;20.30;100.00;101826.56;4971327;28;20053;-80
2022/07/13 06:51:39;;;;;;;10.63;9.60;;;;;;;20.38;100.00;101826.44;4960904;28;20407;-82
2022/07/13 06:54:11;;;;;;;11.48;9.65;;;;;;;20.47;100.00;101822.66;4973921;28;20388;-81
2022/07/13 06:56:39;;;;;;;11.20;8.38;;;;;;;20.55;100.00;101813.53;4966310;28;20065;-81
2022/07/13 06:59:08;;;;;;;11.70;9.18;;;;;;;20.64;100.00;101820.50;4977632;28;20414;-82
2022/07/13 07:01:37;;;;;;;12.18;8.57;;;;;;;20.70;100.00;101803.41;4987922;28;20244;-82
2022/07/13 07:04:05;;;;;;;9.30;8.05;;;;;;;20.87;100.00;101802.97;4976872;28;20045;-81
2022/07/13 07:06:34;;;;;;;9.40;7.95;;;;;;;21.14;100.00;101818.38;4984229;28;20054;-82
2022/07/13 07:09:03;;;;;;;11.57;8.38;;;;;;;21.38;100.00;101824.03;4980286;28;21045;-82
2022/07/13 07:11:31;;;;;;;9.27;8.07;;;;;;;21.56;100.00;101822.69;4991672;28;20046;-82
2022/07/13 07:14:00;;;;;;;10.98;9.07;;;;;;;21.70;100.00;101825.88;4998881;28;20052;-82
2022/07/13 07:16:31;;;;;;;13.30;8.55;;;;;;;21.83;100.00;101830.88;4970923;28;20458;-82
2022/07/13 07:19:00;;;;;;;11.80;9.57;;;;;;;21.97;100.00;101828.69;4978992;28;20057;-82
2022/07/13 07:21:50;;;;;;;10.45;8.85;;;;;;;22.06;100.00;101823.06;4998239;28;20034;-82
2022/07/13 07:24:18;;;;;;;10.98;8.40;;;;;;;22.12;100.00;101822.88;4982960;28;20057;-81
2022/07/13 07:26:51;;;;;;;10.23;8.40;;;;;;;22.20;100.00;101818.16;4991702;28;20046;-82
2022/07/13 07:29:19;;;;;;;14.25;9.43;;;;;;;22.31;100.00;101827.75;4986198;28;20056;-83
2022/07/13 07:31:48;;;;;;;10.18;8.98;;;;;;;22.39;100.00;101831.06;4973380;28;20045;-82
2022/07/13 07:34:21;;;;;;;15.65;9.10;;;;;;;22.42;100.00;101822.91;4988025;28;20056;-81
2022/07/13 07:36:52;;;;;;;12.18;9.63;;;;;;;22.47;100.00;101829.00;4999049;28;20046;-83
2022/07/13 07:39:23;;;;;;;11.73;7.65;;;;;;;22.53;100.00;101820.78;4976150;28;20406;-82
2022/07/13 07:41:51;;;;;;;;;;;;;;;22.58;100.00;101812.56;4994450;28;20057;-82
2022/07/13 07:44:19;;;;;;;11.15;8.52;;;;;;;22.62;100.00;101811.53;4987632;28;20278;-82
2022/07/13 07:46:53;;;;;;;9.50;8.32;;;;;;;22.65;100.00;101811.44;4996018;28;20395;-81
2022/07/13 07:49:24;;;;;;;8.40;7.47;;;;;;;22.69;100.00;101812.22;4971506;28;20053;-82
2022/07/13 07:51:54;;;;;;;12.48;8.20;;;;;;;22.75;100.00;101807.50;4998808;28;20062;-82
2022/07/13 07:54:42;;;;;;;7.93;7.22;;;;;;;22.85;100.00;101807.22;4986514;28;20050;-83
2022/07/13 07:57:11;;;;;;;10.90;7.78;;;;;;;22.93;100.00;101806.06;4990662;28;20062;-83
2022/07/13 07:59:41;;;;;;;10.52;7.80;;;;;;;22.94;100.00;101810.47;4959091;28;20526;-83
2022/07/13 08:02:09;;;;;;;11.43;7.90;;;;;;;22.99;100.00;101810.34;4976181;28;20067;-82
2022/07/13 08:04:39;;;;;;;9.52;7.07;;;;;;;23.04;100.00;101796.75;4947815;28;21035;-83
2022/07/13 08:07:07;;;;;;;10.93;7.88;;;;;;;23.08;100.00;101801.09;4988385;28;20423;-83
2022/07/13 08:09:36;;;;;;;17.65;9.38;;;;;;;23.14;100.00;101799.09;4990758;28;20287;-82
2022/07/13 08:12:05;;;;;;;11.85;7.35;;;;;;;23.20;100.00;101802.50;4970794;28;20043;-82
2022/07/13 08:14:33;;;;;;;10.60;7.40;;;;;;;23.26;100.00;101804.97;4968016;28;20566;-81
2022/07/13 08:17:05;;;;;;;9.23;6.55;;;;;;;23.30;100.00;101803.94;5000906;28;20106;-82
2022/07/13 08:19:33;;;;;;;11.68;7.53;;;;;;;23.38;100.00;101799.16;4949594;28;20058;-81
2022/07/13 08:22:08;;;;;;;13.23;7.60;;;;;;;23.39;100.00;101786.63;4966570;28;20046;-83
2022/07/13 08:24:39;;;;;;;8.75;7.47;;;;;;;23.43;100.00;101788.25;4984524;28;20531;-83
2022/07/13 08:27:08;;;;;;;10.57;7.15;;;;;;;23.49;100.00;101793.41;4966066;28;20046;-82
2022/07/13 08:29:36;;;;;;;8.95;7.40;;;;;;;23.54;100.00;101797.69;4972289;28;20492;-82
2022/07/13 08:32:05;;;;;;;10.82;7.50;;;;;;;23.58;100.00;101801.16;4973334;28;20507;-82
2022/07/13 08:40:10;;;;;;;10.70;6.80;;;;;;;23.74;100.00;101807.72;4983319;28;20057;-82
2022/07/13 08:42:39;;;;;;;6.90;5.70;;;;;;;23.77;100.00;101804.03;4982005;28;20057;-82
2022/07/13 08:45:08;;;;;;;7.82;6.07;;;;;;;23.80;100.00;101806.66;4965309;28;20279;-82
2022/07/13 08:47:38;;;;;;;9.23;6.35;;;;;;;23.83;100.00;101800.28;4968694;28;20412;-83
2022/07/13 08:50:08;;;;;;;11.55;6.65;;;;;;;23.86;100.00;101802.88;4973720;28;20050;-82
2022/07/13 08:52:41;;;;;;;8.30;6.55;;;;;;;23.92;100.00;101797.25;4967877;28;20042;-82
2022/07/13 08:55:10;;;;;;;9.88;6.30;;;;;;;23.94;100.00;101798.06;4990709;28;20569;-82
2022/07/13 08:57:39;;;;;;;8.82;5.90;;;;;;;23.97;100.00;101802.44;4982852;28;20050;-84
2022/07/13 09:00:11;;;;;;;7.18;5.57;;;;;;;23.98;100.00;101794.31;4972198;28;20272;-82
2022/07/13 09:02:40;;;;;;;4.93;3.85;;;;;;;23.98;98.02;101798.81;5001741;28;20046;-82
2022/07/13 09:05:08;;;;;;;6.05;3.33;;;;;;;24.00;95.93;101795.13;4973688;28;20069;-83
2022/07/13 09:07:37;;;;;;;4.88;3.88;;;;;;;24.01;96.73;101786.13;4972939;28;20257;-83
2022/07/13 09:10:10;;;;;;;5.32;4.68;;;;;;;24.04;96.56;101788.69;4959368;28;20043;-83
2022/07/13 09:12:40;;;;;;;6.00;4.95;;;;;;;24.08;96.07;101800.22;4984556;28;20046;-83
2022/07/13 09:15:10;;;;;;;7.55;4.90;;;;;;;24.10;95.23;101804.63;4980664;28;20339;-83
2022/07/13 09:17:42;;;;;;;7.07;4.30;;;;;;;24.13;95.60;101806.31;4976057;28;20038;-83
2022/07/13 09:20:10;;;;;;;5.25;3.80;;;;;;;24.19;95.18;101802.50;4970334;28;20536;-83
2022/07/13 09:22:56;;;;;;;3.72;3.35;;;;;;;24.28;93.02;101805.72;4976648;28;20042;-83
2022/07/13 09:25:37;;;;;;;4.82;3.42;;;;;;;24.37;92.70;101809.88;4941972;28;20531;-83
2022/07/13 09:28:16;;;;;;;4.25;2.75;;;;;;;24.43;90.62;101812.31;4981253;28;20054;-84
2022/07/13 09:30:45;;;;;;;4.78;2.72;;;;;;;24.50;89.86;101815.66;4977097;28;20054;-81
2022/07/13 09:33:14;;;;;;;4.25;3.85;;;;;;;24.55;89.02;101818.19;4986459;28;20050;-83
2022/07/13 09:35:44;;;;;;;7.00;3.83;;;;;;;24.59;89.28;101814.44;4976856;28;20085;-83
2022/07/13 09:38:36;;;;;;;3.92;2.97;;;;;;;24.59;84.35;101814.44;4971539;28;20503;-82
2022/07/13 09:41:24;;;;;;;3.75;2.47;;;;;;;24.61;83.32;101826.03;4961963;28;20512;-83
2022/07/13 09:47:01;;;;;;;4.35;3.53;;;;;;;24.64;87.60;101826.78;4982115;28;20040;-83
2022/07/13 09:49:41;;;;;;;3.45;3.15;;;;;;;24.72;86.05;101831.84;4952670;28;20155;-83
2022/07/13 09:52:16;;;;;;;5.90;3.33;;;;;;;24.76;85.53;101830.78;4973607;28;20042;-82
2022/07/13 09:54:51;;;;;;;4.72;2.50;;;;;;;24.78;81.72;101831.59;4979205;28;20057;-83
2022/07/13 09:57:22;;;;;;;2.20;2.10;;;;;;;24.76;75.79;101825.38;4958026;28;20058;-83
2022/07/13 09:59:53;;;;;;;5.15;2.63;;;;;;;24.74;79.95;101829.97;4967001;28;21063;-83
2022/07/13 10:02:23;;;;;;;4.53;3.75;;;;;;;24.74;81.19;101834.50;4981890;28;20050;-83
2022/07/13 10:04:55;;;;;;;5.00;3.03;;;;;;;24.73;80.16;101833.63;4956801;28;20057;-83
2022/07/13 10:07:24;;;;;;;6.25;3.75;;;;;;;24.75;81.21;101836.25;4975261;28;20042;-83
2022/07/13 10:09:53;;;;;;;5.07;3.55;;;;;;;24.78;79.11;101838.81;4972442;28;20037;-83
2022/07/13 10:12:21;;;;;;;5.38;3.65;;;;;;;24.81;77.82;101850.34;4952756;28;20400;-82
2022/07/13 10:14:53;;;;;;;6.47;3.50;;;;;;;24.80;77.14;101848.59;4985647;28;20049;-83
2022/07/13 10:17:22;;;;;;;4.72;2.72;;;;;;;24.86;75.69;101850.19;4984814;28;20818;-83
2022/07/13 10:20:00;;;;;;;3.72;2.10;;;;;;;24.90;75.81;101852.66;4983251;28;20046;-83
2022/07/13 10:22:34;;;;;;;5.78;2.35;;;;;;;25.00;73.75;101853.16;4970834;28;20050;-82
2022/07/13 10:25:03;;;;;;;5.18;2.25;;;;;;;25.08;74.39;101851.03;4971368;28;20038;-83
2022/07/13 10:27:33;;;;;;;3.53;2.60;;;;;;;25.18;75.40;101854.22;4956926;28;20515;-83
2022/07/13 10:30:02;;;;;;;5.35;2.78;;;;;;;25.27;75.50;101855.66;4978972;28;20377;-82
2022/07/13 10:32:35;;;;;;;5.38;3.22;;;;;;;25.36;75.96;101854.41;4970816;28;20972;-82
2022/07/13 10:35:04;;;;;;;2.53;2.33;;;;;;;25.41;73.72;101850.56;4963363;28;20627;-80
2022/07/13 10:38:01;;;;;;;4.40;3.00;;;;;;;25.44;72.05;101857.66;4980979;28;20051;-81
2022/07/13 10:40:36;;;;;;;5.05;2.83;;;;;;;25.42;74.19;101855.00;4972972;28;20050;-82
2022/07/13 10:43:04;;;;;;;3.90;2.05;;;;;;;25.41;73.39;101852.41;4942624;28;20055;-82
2022/07/13 10:45:33;;;;;;;1.92;1.75;;;;;;;25.48;74.24;101859.25;4981227;28;20046;-80
2022/07/13 10:48:05;;;;;;;4.20;2.33;;;;;;;25.57;72.96;101866.09;4973719;28;20551;-84
2022/07/13 10:50:48;;;;;;;3.80;1.45;;;;;;;25.58;66.60;101874.13;4974846;28;20404;-81
2022/07/13 10:53:17;;;;;;;4.15;1.70;;;;;;;25.60;71.54;101876.75;4979611;28;20049;-82
2022/07/13 10:55:52;;;;;;;2.60;1.88;;;;;;;25.61;71.10;101876.66;4970934;28;20038;-81
2022/07/13 10:58:32;;;;;;;2.67;1.67;;;;;;;25.57;69.30;101882.28;4956525;28;20061;-81
2022/07/13 11:01:36;;;;;;;1.63;1.48;;;;;;;25.52;64.48;101884.28;4978505;28;20342;-82
2022/07/13 11:04:06;;;;;;;2.10;1.70;;;;;;;25.49;68.50;101888.88;4965461;28;20051;-78
2022/07/13 11:06:36;;;;;;;1.50;1.45;;;;;;;25.49;68.01;101890.72;4940251;28;20432;-80
2022/07/13 11:09:08;;;;;;;2.42;1.92;;;;;;;25.56;68.48;101897.59;4951317;28;20336;-79
2022/07/13 11:11:53;;;;;;;3.47;2.10;;;;;;;25.55;65.40;101903.94;4960936;28;20119;-80
2022/07/13 11:14:39;;;;;;;2.60;2.30;;;;;;;25.52;63.07;101906.78;4982708;28;20054;-80
2022/07/13 11:17:24;;;;;;;2.50;2.30;;;;;;;25.46;65.33;101912.41;4954290;28;20051;-81
2022/07/13 11:20:11;;;;;;;2.50;2.30;;;;;;;25.45;66.85;101906.16;4943406;28;20177;-83
2022/07/13 11:25:50;;;;;;;6.95;3.10;;;;;;;25.58;69.54;101911.91;4956405;28;20058;-79
2022/07/13 11:28:34;;;;;;;8.35;3.45;;;;;;;25.66;70.50;101914.28;4934676;28;20065;-79
2022/07/13 11:31:03;;;;;;;4.15;3.08;;;;;;;25.66;70.43;101915.16;4957486;28;20256;-79
2022/07/13 11:33:32;;;;;;;5.72;3.13;;;;;;;25.68;70.22;101918.66;4956902;28;20054;-79
2022/07/13 11:36:01;;;;;;;3.67;2.60;;;;;;;25.66;70.37;101919.66;4952254;28;20256;-80
2022/07/13 11:38:34;;;;;;;6.93;4.40;;;;;;;25.73;71.89;101913.06;4953775;28;20050;-80
2022/07/13 11:41:05;;;;;;;5.35;3.92;;;;;;;25.75;72.51;101924.69;4956831;28;20288;-82
2022/07/13 11:43:33;;;;;;;8.10;3.95;;;;;;;25.80;74.06;101914.56;4925772;28;20054;-79
2022/07/13 11:46:04;;;;;;;7.93;4.60;;;;;;;25.93;75.35;101920.31;4971469;28;20161;-82
2022/07/13 11:48:33;;;;;;;5.13;4.63;;;;;;;25.96;76.43;101917.47;4934797;28;20538;-82